Time;durP1;ratioP1;P1;durP2;ratioP2;P2;SDS_P1;SDS_P2;PMS_P1;PMS_P2;Temp;Humidity;BMP_temperature;BMP_pressure;BME280_temperature;BME280_humidity;BME280_pressure;Samples;Min_cycle;Max_cycle;Signal;HPM_P1;HPM_P2
2023/01/01 00:01:29;;;;;;;15.83;5.07;;;;;;;15.96;57.92;100713.16;4847482;29;20025;-87
2023/01/01 00:03:57;;;;;;;12.80;4.10;;;;;;;15.88;58.91;100693.63;4865627;29;20077;-87
2023/01/01 00:06:22;;;;;;;14.30;4.07;;;;;;;15.84;58.72;100680.50;4849289;29;20029;-87
2023/01/01 00:10:26;;;;;;;13.73;4.00;;;;;;;15.80;58.62;100701.19;4868839;29;20040;-88
2023/01/01 00:11:34;;;;;;;13.67;3.70;;;;;;;15.81;58.54;100704.75;4864739;29;20044;-87
2023/01/01 00:13:59;;;;;;;12.53;3.70;;;;;;;15.81;58.47;100710.19;4846936;29;20029;-87
2023/01/01 00:16:24;;;;;;;12.20;3.67;;;;;;;15.73;59.25;100702.41;4847591;29;20037;-87
2023/01/01 00:18:50;;;;;;;9.30;3.20;;;;;;;15.78;58.54;100711.50;4843685;29;20036;-87
2023/01/01 00:21:16;;;;;;;11.57;3.40;;;;;;;15.74;58.33;100704.06;4848715;29;20116;-87
2023/01/01 00:23:42;;;;;;;13.00;3.27;;;;;;;15.79;58.16;100717.78;4860213;29;20110;-88
2023/01/01 00:26:15;;;;;;;12.03;3.50;;;;;;;15.76;58.68;100701.91;4863607;29;20033;-88
2023/01/01 00:28:41;;;;;;;12.82;4.05;;;;;;;15.79;57.41;100724.09;4845902;29;20030;-87
2023/01/01 00:31:18;;;;;;;10.67;3.63;;;;;;;15.77;57.59;100698.09;4849028;29;20041;-87
2023/01/01 00:33:44;;;;;;;10.33;3.20;;;;;;;15.78;57.08;100752.47;4865567;29;20040;-87
2023/01/01 00:36:15;;;;;;;11.37;3.33;;;;;;;15.68;57.24;100701.25;4847551;29;20025;-87
2023/01/01 00:38:41;;;;;;;15.07;3.70;;;;;;;15.81;56.73;100713.75;4846802;29;20037;-86
2023/01/01 00:41:07;;;;;;;10.67;3.60;;;;;;;15.76;56.69;100715.56;4866121;29;20064;-87
2023/01/01 00:43:33;;;;;;;10.90;4.13;;;;;;;15.79;56.39;100680.38;4865352;29;20125;-86
2023/01/01 00:45:58;;;;;;;11.87;4.10;;;;;;;15.78;56.37;100694.28;4847303;29;20482;-87
2023/01/01 00:48:24;;;;;;;12.70;4.27;;;;;;;15.75;56.18;100678.38;4853958;29;20104;-87
2023/01/01 00:50:51;;;;;;;12.40;3.77;;;;;;;15.74;56.85;100693.94;4863409;29;20093;-86
2023/01/01 00:53:17;;;;;;;11.27;3.40;;;;;;;15.75;56.79;100694.78;4845366;29;20433;-87
2023/01/01 00:55:43;;;;;;;9.40;3.57;;;;;;;15.79;56.50;100671.34;4859114;29;20058;-87
2023/01/01 00:58:09;;;;;;;11.13;3.50;;;;;;;15.76;56.68;100688.22;4866948;29;20037;-86
2023/01/01 01:00:36;;;;;;;12.50;3.27;;;;;;;15.75;57.40;100711.16;4847570;29;20044;-87
2023/01/01 01:03:01;;;;;;;12.77;3.60;;;;;;;15.68;57.39;100705.91;4839912;29;20030;-87
2023/01/01 01:05:27;;;;;;;10.47;3.03;;;;;;;15.73;57.18;100730.53;4848092;29;20037;-87
2023/01/01 01:07:53;;;;;;;8.67;3.07;;;;;;;15.67;57.55;100715.97;4845655;29;20064;-87
2023/01/01 01:10:21;;;;;;;13.63;3.87;;;;;;;15.68;57.39;100725.84;4865153;29;20037;-87
2023/01/01 01:12:46;;;;;;;12.13;3.43;;;;;;;15.66;57.57;100697.09;4845278;29;20039;-88
2023/01/01 01:15:12;;;;;;;8.40;3.17;;;;;;;15.66;57.99;100735.34;4847617;29;20951;-87
2023/01/01 01:17:38;;;;;;;10.90;3.13;;;;;;;15.58;58.05;100727.56;4826455;29;20474;-87
2023/01/01 01:20:03;;;;;;;11.87;3.57;;;;;;;15.66;57.21;100678.81;4861810;29;20466;-87
2023/01/01 01:22:29;;;;;;;10.73;3.23;;;;;;;15.56;58.68;100710.59;4826390;29;20076;-87
2023/01/01 01:24:55;;;;;;;10.47;3.00;;;;;;;15.74;57.11;100704.06;4866022;29;20033;-87
2023/01/01 01:27:20;;;;;;;9.87;3.13;;;;;;;15.59;58.04;100694.53;4848495;29;20037;-87
2023/01/01 01:29:46;;;;;;;10.33;3.43;;;;;;;15.53;58.87;100706.47;4862488;29;20037;-88
2023/01/01 01:32:11;;;;;;;9.37;3.00;;;;;;;15.64;57.68;100726.56;4847269;29;20029;-87
2023/01/01 01:34:37;;;;;;;11.47;3.07;;;;;;;15.49;58.58;100735.31;4866917;29;21835;-87
2023/01/01 01:37:03;;;;;;;11.23;3.10;;;;;;;15.42;58.78;100731.94;4844760;29;20136;-87
2023/01/01 01:39:28;;;;;;;7.20;2.63;;;;;;;15.55;58.55;100737.06;4842732;29;20033;-87
2023/01/01 01:41:54;;;;;;;10.63;3.20;;;;;;;15.49;58.47;100703.41;4844472;29;20029;-87
2023/01/01 01:44:44;;;;;;;9.60;3.13;;;;;;;15.56;59.11;100736.00;4860148;29;20041;-88
2023/01/01 01:47:15;;;;;;;9.30;3.13;;;;;;;15.46;58.61;100742.13;4858786;29;20053;-87
2023/01/01 01:49:43;;;;;;;13.50;3.10;;;;;;;15.50;58.05;100740.56;4861683;29;20045;-87
2023/01/01 01:52:09;;;;;;;9.10;2.77;;;;;;;15.42;58.06;100721.00;4847334;29;20082;-87
2023/01/01 01:54:35;;;;;;;8.27;2.87;;;;;;;15.39;58.05;100697.75;4865921;29;20478;-87
2023/01/01 01:57:04;;;;;;;7.07;2.93;;;;;;;15.28;58.17;100734.97;4846224;29;20097;-87
2023/01/01 01:59:37;;;;;;;12.17;3.20;;;;;;;15.30;58.42;100749.22;4867868;29;20033;-87
2023/01/01 02:02:09;;;;;;;8.67;2.80;;;;;;;15.25;58.30;100746.41;4873655;29;20033;-88
2023/01/01 02:04:35;;;;;;;8.07;2.67;;;;;;;15.10;59.54;100754.31;4853560;29;20676;-87
2023/01/01 02:07:00;;;;;;;10.03;3.00;;;;;;;15.11;58.98;100769.59;4852819;29;20061;-87
2023/01/01 02:09:26;;;;;;;10.27;2.70;;;;;;;15.12;58.81;100760.34;4871202;29;20470;-87
2023/01/01 02:11:51;;;;;;;7.20;2.90;;;;;;;15.13;58.14;100753.81;4850553;29;20044;-88
2023/01/01 02:14:17;;;;;;;7.70;2.70;;;;;;;15.09;58.18;100764.38;4854914;29;20028;-87
2023/01/01 02:17:00;;;;;;;9.23;3.03;;;;;;;15.14;58.22;100758.22;4867439;29;20389;-87
2023/01/01 02:19:54;;;;;;;13.13;3.10;;;;;;;15.09;57.94;100758.94;4864324;29;21195;-87
2023/01/01 02:22:35;;;;;;;8.52;2.80;;;;;;;15.09;58.13;100763.56;4847914;29;20185;-87
2023/01/01 02:25:04;;;;;;;7.17;2.70;;;;;;;15.02;58.21;100786.34;4864356;29;20076;-88
2023/01/01 02:27:46;;;;;;;8.43;3.00;;;;;;;14.99;57.92;100756.03;4838424;29;20041;-87
2023/01/01 02:30:13;;;;;;;9.43;3.20;;;;;;;14.92;58.48;100767.06;4854548;29;20403;-87
2023/01/01 02:32:44;;;;;;;8.87;2.80;;;;;;;14.96;58.36;100765.50;4850020;29;20396;-88
2023/01/01 02:35:35;;;;;;;9.03;2.80;;;;;;;14.95;58.36;100754.84;4863234;29;20546;-86
2023/01/01 02:38:33;;;;;;;10.27;2.70;;;;;;;14.87;58.42;100772.41;4848390;29;20049;-87
2023/01/01 02:41:03;;;;;;;12.67;3.10;;;;;;;14.84;58.07;100762.81;4857678;29;20033;-87
2023/01/01 02:43:29;;;;;;;10.23;3.20;;;;;;;14.87;57.81;100756.06;4849857;29;20038;-88
2023/01/01 02:45:55;;;;;;;9.60;2.70;;;;;;;14.92;57.55;100755.31;4857697;29;20040;-87
2023/01/01 02:48:39;;;;;;;9.20;3.07;;;;;;;14.84;58.49;100762.00;4867289;29;20033;-87
2023/01/01 02:51:33;;;;;;;7.82;2.42;;;;;;;14.92;58.15;100764.34;4839942;29;20047;-87
2023/01/01 02:54:08;;;;;;;9.40;2.70;;;;;;;14.81;58.27;100762.47;4856302;29;20037;-87
2023/01/01 02:56:46;;;;;;;7.23;2.40;;;;;;;14.82;58.40;100767.72;4849742;29;20450;-87
2023/01/01 03:02:27;;;;;;;9.20;2.60;;;;;;;14.76;58.72;100773.28;4866019;29;20094;-88
2023/01/01 03:06:21;;;;;;;8.73;2.60;;;;;;;14.75;58.98;100780.63;4858371;29;20060;-87
2023/01/01 03:08:29;;;;;;;5.93;2.47;;;;;;;14.75;58.69;100768.91;4850138;29;20034;-87
2023/01/01 03:11:04;;;;;;;9.50;2.40;;;;;;;14.74;59.15;100767.25;4852826;29;20561;-87
2023/01/01 03:13:32;;;;;;;;;;;;;;;14.87;58.72;100791.50;4844463;29;20041;-87
2023/01/01 03:16:01;;;;;;;7.80;2.40;;;;;;;14.74;59.34;100794.50;4858607;29;19916;-88
2023/01/01 03:18:35;;;;;;;7.43;2.30;;;;;;;14.67;59.99;100791.91;4849272;29;20060;-88
2023/01/01 03:21:04;;;;;;;7.13;2.20;;;;;;;14.65;59.88;100755.91;4855488;29;20120;-87
2023/01/01 03:23:34;;;;;;;8.57;2.37;;;;;;;14.59;60.75;100808.63;4865132;29;20052;-87
2023/01/01 03:26:06;;;;;;;9.30;2.40;;;;;;;14.53;60.92;100799.50;4843360;29;20036;-87
2023/01/01 03:28:36;;;;;;;7.57;2.40;;;;;;;14.49;61.00;100788.25;4863548;29;20048;-87
2023/01/01 03:31:02;;;;;;;6.33;2.60;;;;;;;14.49;61.25;100790.16;4849269;29;20037;-87
2023/01/01 03:33:40;;;;;;;6.50;2.23;;;;;;;14.62;61.36;100813.59;4848203;29;20028;-88
2023/01/01 03:36:11;;;;;;;6.07;2.30;;;;;;;14.49;61.50;100793.69;4850238;29;20093;-86
2023/01/01 03:38:51;;;;;;;11.40;2.80;;;;;;;14.48;62.26;100796.66;4846474;29;20068;-87
2023/01/01 03:41:22;;;;;;;7.87;2.40;;;;;;;14.44;62.06;100795.47;4853606;29;20037;-87
2023/01/01 03:43:54;;;;;;;7.70;2.60;;;;;;;14.47;62.36;100805.91;4835361;29;20030;-86
2023/01/01 03:46:27;;;;;;;6.50;2.30;;;;;;;14.45;62.26;100778.06;4836458;29;20061;-88
2023/01/01 03:48:56;;;;;;;6.77;2.13;;;;;;;14.47;62.20;100816.81;4866505;29;20036;-87
2023/01/01 03:51:58;;;;;;;6.73;2.40;;;;;;;14.47;63.13;100824.97;4866030;29;20037;-88
2023/01/01 03:54:40;;;;;;;8.93;2.90;;;;;;;14.48;63.18;100843.00;4852017;29;20032;-87
2023/01/01 03:57:43;;;;;;;7.70;2.70;;;;;;;14.46;63.41;100821.44;4849844;29;20053;-87
2023/01/01 04:00:17;;;;;;;5.33;2.37;;;;;;;14.46;63.05;100826.88;4847340;29;20040;-87
2023/01/01 04:02:46;;;;;;;7.90;2.27;;;;;;;14.33;63.83;100840.75;4846417;29;20033;-87
2023/01/01 04:05:13;;;;;;;9.20;2.53;;;;;;;14.44;63.00;100811.84;4842739;29;20505;-87
2023/01/01 04:07:39;;;;;;;7.23;2.37;;;;;;;14.42;63.41;100820.25;4850560;29;20033;-87
2023/01/01 04:10:15;;;;;;;8.23;2.30;;;;;;;14.34;63.56;100831.53;4845687;29;20667;-87
2023/01/01 04:12:47;;;;;;;7.00;2.47;;;;;;;14.33;63.79;100811.63;4855783;29;20026;-87
2023/01/01 04:15:14;;;;;;;9.13;2.50;;;;;;;14.42;63.49;100842.06;4862730;29;20040;-87
2023/01/01 04:17:40;;;;;;;9.30;2.40;;;;;;;14.34;63.99;100807.81;4861033;29;20030;-88
2023/01/01 04:20:06;;;;;;;6.63;2.07;;;;;;;14.39;63.90;100849.88;4851959;29;20513;-87
2023/01/01 04:22:32;;;;;;;4.25;2.00;;;;;;;14.30;64.45;100847.50;4864285;29;20026;-87
2023/01/01 04:24:57;;;;;;;10.50;2.70;;;;;;;14.29;64.23;100810.44;4856322;29;20085;-87
2023/01/01 04:27:23;;;;;;;4.87;2.30;;;;;;;14.35;64.49;100849.53;4847975;29;20473;-87
2023/01/01 04:29:48;;;;;;;8.80;2.30;;;;;;;14.35;64.72;100852.25;4843209;29;20125;-87
2023/01/01 04:32:14;;;;;;;8.27;2.43;;;;;;;14.28;64.46;100836.03;4842219;29;20570;-87
2023/01/01 04:34:39;;;;;;;10.30;2.77;;;;;;;14.33;64.79;100843.47;4841165;29;20029;-87
2023/01/01 04:37:04;;;;;;;8.03;2.40;;;;;;;14.32;64.88;100837.22;4849785;29;20145;-87
2023/01/01 04:39:30;;;;;;;5.57;2.30;;;;;;;14.29;64.96;100837.69;4829466;29;20038;-87
2023/01/01 04:41:55;;;;;;;5.70;2.17;;;;;;;14.18;65.67;100858.41;4845427;29;20088;-87
2023/01/01 04:44:21;;;;;;;8.23;2.50;;;;;;;14.15;65.81;100852.59;4865806;29;20052;-87
2023/01/01 04:46:46;;;;;;;7.97;2.50;;;;;;;14.15;66.45;100864.31;4865785;29;20053;-87
2023/01/01 04:49:12;;;;;;;6.80;2.33;;;;;;;14.21;65.77;100861.72;4853998;29;20042;-88
2023/01/01 04:51:37;;;;;;;7.17;2.43;;;;;;;14.15;66.20;100850.69;4865494;29;21809;-87
2023/01/01 04:54:02;;;;;;;8.20;2.60;;;;;;;14.13;66.42;100863.75;4835777;29;20033;-87
2023/01/01 04:56:28;;;;;;;7.33;2.40;;;;;;;14.18;66.52;100865.75;4849025;29;20433;-87
2023/01/01 04:58:56;;;;;;;7.23;2.43;;;;;;;14.19;66.49;100872.88;4853937;29;20131;-87
2023/01/01 05:01:27;;;;;;;7.73;2.53;;;;;;;14.09;67.47;100880.78;4869352;29;20021;-87
2023/01/01 05:03:53;;;;;;;8.73;2.40;;;;;;;14.07;67.56;100880.19;4833908;29;20041;-87
2023/01/01 05:06:18;;;;;;;7.73;2.40;;;;;;;14.06;67.99;100884.81;4847496;29;20041;-87
2023/01/01 05:08:47;;;;;;;7.00;2.23;;;;;;;14.02;68.27;100895.34;4868709;29;20135;-87
2023/01/01 05:11:15;;;;;;;11.37;2.50;;;;;;;14.02;68.01;100886.34;4844540;29;20075;-87
2023/01/01 05:13:43;;;;;;;6.23;2.43;;;;;;;14.01;68.23;100912.75;4841396;29;20406;-87
2023/01/01 05:16:11;;;;;;;7.80;2.20;;;;;;;13.90;69.11;100899.09;4850528;29;20049;-87
2023/01/01 05:18:37;;;;;;;8.33;2.70;;;;;;;13.94;69.38;100894.84;4863187;29;20053;-87
2023/01/01 05:21:05;;;;;;;8.53;2.40;;;;;;;13.99;68.99;100911.31;4859423;29;20959;-86
2023/01/01 05:23:32;;;;;;;8.43;2.93;;;;;;;13.94;69.63;100908.47;4844709;29;20030;-87
2023/01/01 05:25:57;;;;;;;8.40;2.50;;;;;;;13.86;70.13;100928.69;4851310;29;20088;-87
2023/01/01 05:28:23;;;;;;;9.47;2.60;;;;;;;13.89;69.97;100941.03;4843437;29;20033;-87
2023/01/01 05:30:50;;;;;;;6.13;2.50;;;;;;;13.80;71.01;100935.91;4833617;29;20037;-86
2023/01/01 05:33:15;;;;;;;8.13;2.27;;;;;;;13.81;70.69;100951.16;4840893;29;20490;-87
2023/01/01 05:35:41;;;;;;;10.20;2.90;;;;;;;13.85;70.07;100951.53;4843049;29;20034;-86
2023/01/01 05:38:06;;;;;;;7.43;2.57;;;;;;;13.84;70.32;100939.84;4844252;29;20037;-87
2023/01/01 05:40:32;;;;;;;9.00;2.63;;;;;;;13.85;70.73;100938.75;4846558;29;20043;-87
2023/01/01 05:42:57;;;;;;;7.13;2.30;;;;;;;13.76;71.48;100958.38;4860331;29;20056;-87
2023/01/01 05:45:22;;;;;;;10.60;2.73;;;;;;;13.84;71.11;100952.59;4862670;29;20069;-87
2023/01/01 05:47:48;;;;;;;7.13;2.60;;;;;;;13.89;70.92;100949.19;4848163;29;20385;-87
2023/01/01 05:50:13;;;;;;;10.03;2.50;;;;;;;13.78;71.86;100956.25;4845064;29;20036;-87
2023/01/01 05:52:39;;;;;;;8.47;2.60;;;;;;;13.88;71.22;100961.16;4863976;29;20032;-87
2023/01/01 05:55:05;;;;;;;8.13;2.23;;;;;;;13.82;71.77;100962.91;4866532;29;20482;-87
2023/01/01 05:57:30;;;;;;;8.53;2.60;;;;;;;13.71;72.80;100978.13;4844085;29;20455;-87
2023/01/01 05:59:56;;;;;;;9.57;2.63;;;;;;;13.67;73.79;100983.19;4844241;29;20061;-87
2023/01/01 06:02:21;;;;;;;9.53;2.63;;;;;;;13.60;74.00;100987.06;4859753;29;20057;-86
2023/01/01 06:04:46;;;;;;;9.97;3.00;;;;;;;13.56;74.43;100992.16;4842929;29;20462;-87
2023/01/01 06:07:12;;;;;;;11.93;2.90;;;;;;;13.56;74.54;100997.59;4863715;29;20065;-87
2023/01/01 06:09:37;;;;;;;9.60;2.53;;;;;;;13.47;75.17;100990.78;4846771;29;20033;-87
2023/01/01 06:12:03;;;;;;;10.13;2.70;;;;;;;13.39;76.18;101012.88;4852847;29;20128;-87
2023/01/01 06:14:28;;;;;;;8.17;3.00;;;;;;;13.40;75.90;101003.66;4819397;29;20032;-86
2023/01/01 06:16:54;;;;;;;8.33;2.90;;;;;;;13.27;76.75;101013.59;4836691;29;20030;-86
2023/01/01 06:19:19;;;;;;;13.43;3.00;;;;;;;13.26;76.95;101020.09;4848961;29;20060;-87
2023/01/01 06:21:44;;;;;;;11.07;2.97;;;;;;;13.23;77.77;101028.72;4864834;29;20119;-87
2023/01/01 06:24:10;;;;;;;11.33;3.00;;;;;;;13.16;78.14;101025.19;4857779;29;20398;-86
2023/01/01 06:26:35;;;;;;;10.00;2.97;;;;;;;13.15;78.80;101039.84;4867083;29;20493;-87
2023/01/01 06:29:01;;;;;;;10.23;2.80;;;;;;;13.14;78.52;101055.34;4845722;29;20037;-87
2023/01/01 06:31:28;;;;;;;8.73;2.57;;;;;;;12.99;79.74;101069.28;4845621;29;20029;-86
2023/01/01 06:33:54;;;;;;;8.80;2.30;;;;;;;12.74;82.86;101082.06;4849619;29;20105;-86
2023/01/01 06:36:22;;;;;;;6.23;2.30;;;;;;;12.33;85.75;101092.34;4860179;29;20066;-87
2023/01/01 06:38:50;;;;;;;9.40;2.50;;;;;;;12.01;90.12;101105.88;4848192;29;20568;-86
2023/01/01 06:41:18;;;;;;;6.43;2.30;;;;;;;11.72;92.71;101099.03;4864535;29;20045;-86
2023/01/01 06:43:44;;;;;;;7.97;2.47;;;;;;;11.59;94.32;101081.75;4859855;29;20109;-87
2023/01/01 06:46:22;;;;;;;4.90;2.27;;;;;;;11.52;95.73;101085.50;4864288;29;20875;-87
2023/01/01 06:48:50;;;;;;;10.20;2.90;;;;;;;11.46;96.00;101084.50;4861306;29;20542;-86
2023/01/01 06:51:18;;;;;;;6.47;2.60;;;;;;;11.42;96.41;101064.25;4853166;29;20081;-87
2023/01/01 06:53:44;;;;;;;6.53;2.10;;;;;;;11.47;95.79;101105.16;4866259;29;20029;-87
2023/01/01 06:56:10;;;;;;;4.00;2.00;;;;;;;11.55;93.35;101093.25;4860551;29;20110;-86
2023/01/01 06:58:36;;;;;;;6.50;2.10;;;;;;;11.62;92.75;101096.78;4849831;29;20587;-87
2023/01/01 07:01:09;;;;;;;5.13;2.20;;;;;;;11.62;92.82;101103.03;4838583;29;20045;-86
2023/01/01 07:03:36;;;;;;;6.80;2.10;;;;;;;11.77;89.92;101131.81;4850386;29;20042;-87
2023/01/01 07:06:01;;;;;;;3.73;2.00;;;;;;;11.79;90.38;101121.56;4851194;29;20392;-86
2023/01/01 07:08:27;;;;;;;5.93;2.10;;;;;;;11.82;91.17;101132.84;4851451;29;20109;-88
2023/01/01 07:10:52;;;;;;;6.20;2.13;;;;;;;11.82;92.69;101110.31;4828221;29;20426;-87
2023/01/01 07:13:18;;;;;;;6.23;2.50;;;;;;;11.74;94.39;101111.34;4844234;29;20033;-87
2023/01/01 07:15:43;;;;;;;7.30;2.70;;;;;;;11.74;94.42;101127.66;4865605;29;20159;-86
2023/01/01 07:18:09;;;;;;;9.53;2.63;;;;;;;11.69;93.82;101138.31;4860098;29;20029;-86
2023/01/01 07:20:34;;;;;;;6.90;2.67;;;;;;;11.72;94.22;101131.63;4838282;29;20065;-88
2023/01/01 07:23:01;;;;;;;5.43;2.40;;;;;;;11.72;94.28;101142.47;4849732;29;20044;-87
2023/01/01 07:25:27;;;;;;;4.83;2.30;;;;;;;11.73;94.06;101141.44;4863556;29;20025;-86
2023/01/01 07:27:52;;;;;;;7.37;2.70;;;;;;;11.68;95.51;101133.91;4848184;29;20029;-87
2023/01/01 07:30:18;;;;;;;9.17;3.30;;;;;;;11.64;96.25;101144.38;4844700;29;20044;-87
2023/01/01 07:32:45;;;;;;;6.47;2.77;;;;;;;11.63;95.16;101150.84;4863563;29;20040;-87
2023/01/01 07:35:11;;;;;;;7.33;2.40;;;;;;;11.61;94.07;101149.38;4860844;29;20116;-87
2023/01/01 07:37:37;;;;;;;9.07;2.90;;;;;;;11.52;95.05;101162.34;4853649;29;20159;-87
2023/01/01 07:40:03;;;;;;;6.73;2.57;;;;;;;11.52;94.49;101151.50;4849607;29;20034;-87
2023/01/01 07:42:28;;;;;;;5.70;2.20;;;;;;;11.48;92.77;101161.09;4862401;29;20363;-86
2023/01/01 07:44:53;;;;;;;6.43;2.40;;;;;;;11.48;92.56;101169.25;4832816;29;20038;-88
2023/01/01 07:47:25;;;;;;;7.17;2.30;;;;;;;11.40;93.07;101158.59;4847628;29;20053;-87
2023/01/01 07:49:51;;;;;;;6.30;2.23;;;;;;;11.36;93.73;101185.31;4854233;29;20516;-87
2023/01/01 07:52:17;;;;;;;7.60;2.37;;;;;;;11.35;92.86;101178.19;4850701;29;20128;-87
2023/01/01 07:54:43;;;;;;;6.53;2.10;;;;;;;11.32;92.88;101189.47;4835450;29;20112;-87
2023/01/01 07:57:09;;;;;;;6.13;2.10;;;;;;;11.22;91.62;101189.91;4861278;29;20057;-87
2023/01/01 07:59:34;;;;;;;7.20;2.27;;;;;;;11.19;92.01;101203.03;4866109;29;20036;-86
2023/01/01 08:02:00;;;;;;;6.80;1.90;;;;;;;11.12;94.35;101212.00;4836259;29;20041;-87
2023/01/01 08:04:28;;;;;;;6.53;1.93;;;;;;;11.01;95.47;101228.88;4868203;29;20037;-87
2023/01/01 08:06:54;;;;;;;7.00;2.10;;;;;;;10.86;97.08;101250.72;4846071;29;20029;-86
2023/01/01 08:09:19;;;;;;;6.77;1.80;;;;;;;10.76;100.00;101240.28;4850223;29;20541;-87
2023/01/01 08:11:45;;;;;;;8.07;2.00;;;;;;;10.57;100.00;101246.47;4851046;29;20115;-87
2023/01/01 08:14:11;;;;;;;6.27;1.93;;;;;;;10.43;100.00;101272.63;4862953;29;20029;-87
2023/01/01 08:16:37;;;;;;;8.47;2.50;;;;;;;10.29;100.00;101274.41;4846474;29;20038;-88
2023/01/01 08:19:02;;;;;;;8.60;2.87;;;;;;;10.28;100.00;101272.72;4836626;29;20561;-87
2023/01/01 08:21:28;;;;;;;7.33;2.40;;;;;;;10.22;100.00;101276.25;4854697;29;20039;-88
2023/01/01 08:23:53;;;;;;;9.77;2.80;;;;;;;10.13;100.00;101256.59;4860697;29;20036;-87
2023/01/01 08:26:30;;;;;;;9.80;2.57;;;;;;;10.16;100.00;101258.94;4854357;29;20116;-87
2023/01/01 08:28:56;;;;;;;11.37;3.07;;;;;;;10.07;100.00;101266.34;4861053;29;20084;-88
2023/01/01 08:31:22;;;;;;;10.90;2.90;;;;;;;10.04;100.00;101274.88;4836145;29;20033;-88
2023/01/01 08:33:48;;;;;;;9.43;2.90;;;;;;;10.00;100.00;101261.94;4848898;29;20081;-87
2023/01/01 08:36:15;;;;;;;10.80;3.00;;;;;;;10.05;100.00;101267.59;4853920;29;20470;-87
2023/01/01 08:38:41;;;;;;;13.60;3.20;;;;;;;10.05;100.00;101273.00;4866951;29;20051;-87
2023/01/01 08:41:07;;;;;;;10.23;3.30;;;;;;;10.04;100.00;101276.75;4857958;29;21950;-87
2023/01/01 08:43:32;;;;;;;11.97;3.10;;;;;;;10.01;100.00;101277.13;4849053;29;20045;-87
2023/01/01 08:45:58;;;;;;;7.40;2.67;;;;;;;10.04;100.00;101285.72;4849580;29;20029;-87
2023/01/01 08:48:23;;;;;;;11.13;2.90;;;;;;;10.01;100.00;101286.13;4834080;29;20057;-87
2023/01/01 08:50:56;;;;;;;8.70;2.80;;;;;;;10.01;100.00;101296.94;4847058;29;20021;-88
2023/01/01 08:53:22;;;;;;;9.83;2.60;;;;;;;9.99;100.00;101303.59;4848368;29;20029;-88
2023/01/01 08:56:19;;;;;;;8.80;2.70;;;;;;;10.00;100.00;101305.28;4848417;29;20053;-87
2023/01/01 08:58:45;;;;;;;10.23;2.60;;;;;;;10.05;100.00;101297.38;4821216;29;20045;-87
2023/01/01 09:01:11;;;;;;;9.03;3.20;;;;;;;10.07;100.00;101301.56;4861150;29;20515;-87
2023/01/01 09:03:36;;;;;;;10.37;2.67;;;;;;;10.05;100.00;101298.22;4838436;29;20097;-87
2023/01/01 09:06:02;;;;;;;8.90;2.90;;;;;;;10.12;100.00;101292.84;4844283;29;20068;-88
2023/01/01 09:08:27;;;;;;;9.13;2.50;;;;;;;10.08;100.00;101283.47;4851567;29;20040;-87
2023/01/01 09:10:58;;;;;;;6.00;2.40;;;;;;;10.12;100.00;101293.69;4851849;29;20059;-87
2023/01/01 09:13:23;;;;;;;8.57;2.80;;;;;;;10.14;100.00;101279.94;4863422;29;20028;-86
2023/01/01 09:15:49;;;;;;;8.37;2.50;;;;;;;10.14;100.00;101282.66;4847153;29;20479;-87
2023/01/01 09:18:14;;;;;;;7.57;2.50;;;;;;;10.16;100.00;101293.28;4860033;29;20021;-87
2023/01/01 09:20:40;;;;;;;7.87;2.77;;;;;;;10.12;100.00;101293.69;4843649;29;20096;-87
2023/01/01 09:23:07;;;;;;;9.30;2.80;;;;;;;10.15;100.00;101297.88;4838374;29;20054;-87
2023/01/01 09:25:33;;;;;;;9.37;2.90;;;;;;;10.15;100.00;101297.88;4841498;29;20037;-87
2023/01/01 09:28:07;;;;;;;12.67;3.03;;;;;;;10.16;100.00;101304.97;4853360;29;20041;-86
2023/01/01 09:30:33;;;;;;;9.32;2.75;;;;;;;10.18;100.00;101299.34;4838529;29;20048;-86
2023/01/01 09:33:00;;;;;;;10.87;3.80;;;;;;;10.21;100.00;101302.47;4867450;29;20059;-86
2023/01/01 09:35:25;;;;;;;12.03;3.50;;;;;;;10.17;100.00;101301.19;4848471;29;20508;-86
2023/01/01 09:37:51;;;;;;;9.50;3.23;;;;;;;10.21;100.00;101316.00;4834850;29;20029;-86
2023/01/01 09:40:50;;;;;;;8.83;3.33;;;;;;;10.21;100.00;101313.31;4866662;29;20033;-87
2023/01/01 09:43:26;;;;;;;14.10;3.70;;;;;;;10.19;100.00;101315.38;4862824;29;20043;-87
2023/01/01 09:46:00;;;;;;;12.77;4.00;;;;;;;10.21;100.00;101318.72;4860406;29;20398;-86
2023/01/01 09:48:28;;;;;;;8.77;3.30;;;;;;;10.21;100.00;101313.31;4847336;29;20036;-87
2023/01/01 09:50:54;;;;;;;11.00;3.70;;;;;;;10.20;100.00;101300.81;4859967;29;20584;-86
2023/01/01 09:53:40;;;;;;;12.27;4.43;;;;;;;10.29;100.00;101321.31;4853378;29;20044;-87
2023/01/01 09:56:13;;;;;;;13.70;3.90;;;;;;;10.27;100.00;101317.94;4850157;29;21329;-87
2023/01/01 09:58:39;;;;;;;12.30;3.90;;;;;;;10.30;100.00;101316.72;4851800;29;20032;-87
2023/01/01 10:01:35;;;;;;;11.07;4.00;;;;;;;10.33;100.00;101313.59;4849130;29;20466;-86
2023/01/01 10:04:10;;;;;;;10.60;4.13;;;;;;;10.30;100.00;101312.13;4850426;29;20038;-87
2023/01/01 10:06:54;;;;;;;12.37;4.50;;;;;;;10.29;100.00;101312.31;4851512;29;20049;-87
2023/01/01 10:09:26;;;;;;;11.33;4.70;;;;;;;10.28;100.00;101313.34;4864563;29;20068;-87
2023/01/01 10:12:06;;;;;;;11.07;4.70;;;;;;;10.37;100.00;101320.31;4844480;29;20040;-87
2023/01/01 10:14:38;;;;;;;11.70;4.53;;;;;;;10.35;100.00;101308.00;4864317;29;20036;-87
2023/01/01 10:17:24;;;;;;;12.00;4.60;;;;;;;10.39;100.00;101318.28;4847517;29;20045;-86
2023/01/01 10:20:00;;;;;;;14.27;4.80;;;;;;;10.39;100.00;101299.31;4837667;29;20391;-87
2023/01/01 10:22:38;;;;;;;14.30;5.53;;;;;;;10.47;100.00;101306.41;4840400;29;20053;-87
2023/01/01 10:25:17;;;;;;;11.47;4.93;;;;;;;10.51;100.00;101309.56;4851957;29;20044;-87
2023/01/01 10:27:55;;;;;;;14.10;4.97;;;;;;;10.53;100.00;101316.47;4849997;29;20033;-87
2023/01/01 10:30:23;;;;;;;13.47;5.20;;;;;;;10.59;100.00;101321.09;4865108;29;20509;-87
2023/01/01 10:32:53;;;;;;;12.27;4.80;;;;;;;10.63;100.00;101325.06;4846687;29;20047;-87
2023/01/01 10:35:33;;;;;;;13.00;4.50;;;;;;;10.71;100.00;101334.06;4836407;29;20525;-87
2023/01/01 10:38:00;;;;;;;13.87;4.50;;;;;;;10.79;100.00;101332.00;4848964;29;20069;-87
2023/01/01 10:40:28;;;;;;;14.70;4.47;;;;;;;10.89;100.00;101336.22;4851610;29;20101;-87
2023/01/01 10:42:56;;;;;;;11.83;4.23;;;;;;;10.96;100.00;101318.97;4836878;29;20044;-87
2023/01/01 10:45:33;;;;;;;12.33;4.50;;;;;;;11.11;100.00;101323.38;4850751;29;20419;-87
2023/01/01 10:48:10;;;;;;;10.87;4.93;;;;;;;11.23;100.00;101332.63;4848821;29;20523;-87
2023/01/01 10:50:47;;;;;;;11.50;4.23;;;;;;;11.31;100.00;101324.28;4852491;29;21912;-87
2023/01/01 10:53:30;;;;;;;10.77;4.00;;;;;;;11.47;100.00;101327.66;4853210;29;20029;-87
2023/01/01 10:56:13;;;;;;;9.53;4.03;;;;;;;11.57;100.00;101327.25;4847681;29;20432;-87
2023/01/01 10:58:46;;;;;;;10.15;4.22;;;;;;;11.62;100.00;101322.88;4854581;29;20069;-87
2023/01/01 11:01:20;;;;;;;10.43;3.90;;;;;;;11.71;100.00;101323.53;4863903;29;20039;-87
2023/01/01 11:03:59;;;;;;;13.02;4.55;;;;;;;11.78;100.00;101328.97;4865326;29;20064;-87
2023/01/01 11:06:32;;;;;;;11.30;3.93;;;;;;;11.89;100.00;101336.47;4847605;29;20073;-87
2023/01/01 11:09:02;;;;;;;14.30;3.97;;;;;;;12.01;100.00;101338.56;4855058;29;20037;-87
2023/01/01 11:11:45;;;;;;;9.70;3.47;;;;;;;12.07;100.00;101343.19;4865369;29;20025;-87
2023/01/01 11:14:38;;;;;;;11.27;3.70;;;;;;;12.05;100.00;101348.84;4848814;29;20044;-87
2023/01/01 11:17:04;;;;;;;13.17;4.30;;;;;;;12.03;100.00;101344.66;4830269;29;20068;-87
2023/01/01 11:19:31;;;;;;;12.03;5.73;;;;;;;12.03;100.00;101348.19;4869979;29;20116;-87
2023/01/01 11:21:58;;;;;;;15.63;6.37;;;;;;;12.12;100.00;101356.97;4866673;29;20025;-87
2023/01/01 11:24:26;;;;;;;12.43;4.80;;;;;;;12.11;100.00;101366.16;4845484;29;20108;-86
2023/01/01 11:27:10;;;;;;;15.07;4.20;;;;;;;12.21;100.00;101361.16;4868776;29;20032;-87
2023/01/01 11:29:35;;;;;;;11.97;3.90;;;;;;;12.23;100.00;101355.50;4834711;29;20048;-87
2023/01/01 11:32:01;;;;;;;14.67;3.80;;;;;;;12.22;100.00;101346.50;4855009;29;20514;-87
2023/01/01 11:34:34;;;;;;;13.90;3.70;;;;;;;12.26;100.00;101341.50;4867286;29;20477;-88